Time;durP1;ratioP1;P1;durP2;ratioP2;P2;SDS_P1;SDS_P2;PMS_P1;PMS_P2;Temp;Humidity;BMP_temperature;BMP_pressure;BME280_temperature;BME280_humidity;BME280_pressure;Samples;Min_cycle;Max_cycle;Signal;HPM_P1;HPM_P2
2023/12/28 00:02:06;;;;;;;;;;;;;;;;;;5016170;28;20347;-73
2023/12/28 00:04:33;;;;;;;;;;;;;;;;;;5021849;28;20357;-73
2023/12/28 00:06:58;;;;;;;;;;;;;;;;;;5021709;28;20302;-72
2023/12/28 00:09:23;;;;;;;;;;;;;;;;;;5027199;28;20349;-72
2023/12/28 00:11:48;;;;;;;;;;;;;;;;;;5010486;28;19922;-72
2023/12/28 00:14:14;;;;;;;;;;;;;;;;;;5018091;28;19929;-73
2023/12/28 00:16:39;;;;;;;;;;;;;;;;;;5012013;28;19971;-71
2023/12/28 00:19:04;;;;;;;;;;;;;;;;;;5013686;28;19975;-72
2023/12/28 00:21:29;;;;;;;;;;;;;;;;;;5021114;28;20365;-72
2023/12/28 00:23:54;;;;;;;;;;;;;;;;;;5016374;28;19944;-72
2023/12/28 00:26:21;;;;;;;;;;;;;;;;;;5014169;28;19925;-72
2023/12/28 00:28:46;;;;;;;;;;;;;;;;;;5020506;28;19940;-72
2023/12/28 00:31:11;;;;;;;;;;;;;;;;;;5023364;28;19921;-72
2023/12/28 00:33:36;;;;;;;;;;;;;;;;;;5015963;28;20024;-72
2023/12/28 00:36:01;;;;;;;;;;;;;;;;;;5016841;28;19928;-72
2023/12/28 00:38:26;;;;;;;;;;;;;;;;;;5016142;28;19971;-72
2023/12/28 00:40:51;;;;;;;;;;;;;;;;;;5023126;28;19921;-72
2023/12/28 00:43:17;;;;;;;;;;;;;;;;;;5020097;28;19971;-72
2023/12/28 00:45:42;;;;;;;;;;;;;;;;;;5013524;28;19988;-72
2023/12/28 00:48:07;;;;;;;;;;;;;;;;;;5016351;28;19925;-73
2023/12/28 00:50:33;;;;;;;;;;;;;;;;;;5018896;28;20020;-72
2023/12/28 00:52:58;;;;;;;;;;;;;;;;;;5013057;28;19940;-72
2023/12/28 00:55:23;;;;;;;;;;;;;;;;;;5011620;28;19928;-72
2023/12/28 00:57:48;;;;;;;;;;;;;;;;;;5012624;28;19925;-72
2023/12/28 01:00:13;;;;;;;;;;;;;;;;;;5013601;28;19921;-73
2023/12/28 01:02:38;;;;;;;;;;;;;;;;;;5014548;28;19921;-72
2023/12/28 01:05:04;;;;;;;;;;;;;;;;;;5017133;28;19972;-72
2023/12/28 01:07:29;;;;;;;;;;;;;;;;;;5010041;28;20306;-73
2023/12/28 01:09:54;;;;;;;;;;;;;;;;;;5016897;28;19925;-72
2023/12/28 01:12:19;;;;;;;;;;;;;;;;;;5011509;28;20244;-73
2023/12/28 01:14:44;;;;;;;;;;;;;;;;;;5016392;28;20390;-72
2023/12/28 01:17:09;;;;;;;;;;;;;;;;;;5016082;28;19991;-72
2023/12/28 01:19:34;;;;;;;;;;;;;;;;;;5014908;28;19921;-72
2023/12/28 01:21:59;;;;;;;;;;;;;;;;;;5018873;28;19975;-72
2023/12/28 01:24:26;;;;;;;;;;;;;;;;;;5012418;28;19988;-72
2023/12/28 01:26:51;;;;;;;;;;;;;;;;;;5011847;28;20440;-72
2023/12/28 01:29:16;;;;;;;;;;;;;;;;;;5020892;28;19930;-72
2023/12/28 01:31:41;;;;;;;;;;;;;;;;;;5020572;28;19921;-72
2023/12/28 01:34:09;;;;;;;;;;;;;;;;;;5011938;28;19960;-73
2023/12/28 01:36:34;;;;;;;;;;;;;;;;;;5012817;28;19957;-73
2023/12/28 01:38:59;;;;;;;;;;;;;;;;;;5032234;28;19948;-72
2023/12/28 01:41:24;;;;;;;;;;;;;;;;;;5031636;28;20439;-73
2023/12/28 01:43:49;;;;;;;;;;;;;;;;;;5015183;28;19925;-72
2023/12/28 01:46:14;;;;;;;;;;;;;;;;;;5030802;28;19925;-72
2023/12/28 01:48:39;;;;;;;;;;;;;;;;;;5016383;28;19922;-73
2023/12/28 01:51:05;;;;;;;;;;;;;;;;;;5011665;28;19937;-73
2023/12/28 01:53:30;;;;;;;;;;;;;;;;;;5012106;28;20001;-72
2023/12/28 01:55:55;;;;;;;;;;;;;;;;;;5011637;28;20294;-72
2023/12/28 01:58:20;;;;;;;;;;;;;;;;;;5016769;28;19928;-71
2023/12/28 02:00:46;;;;;;;;;;;;;;;;;;5030342;28;19947;-72
2023/12/28 02:03:11;;;;;;;;;;;;;;;;;;5025486;28;19917;-72
2023/12/28 02:05:36;;;;;;;;;;;;;;;;;;5031284;28;19925;-72
2023/12/28 02:08:01;;;;;;;;;;;;;;;;;;5022629;28;19929;-72
2023/12/28 02:10:27;;;;;;;;;;;;;;;;;;5010573;28;19922;-72
2023/12/28 02:12:53;;;;;;;;;;;;;;;;;;5011418;28;19933;-72
2023/12/28 02:15:18;;;;;;;;;;;;;;;;;;5019304;28;19999;-73
2023/12/28 02:17:43;;;;;;;;;;;;;;;;;;5024999;28;20294;-72
2023/12/28 02:20:08;;;;;;;;;;;;;;;;;;5010379;28;20397;-73
2023/12/28 02:22:33;;;;;;;;;;;;;;;;;;5015284;28;19921;-73
2023/12/28 02:24:58;;;;;;;;;;;;;;;;;;5017008;28;19984;-72
2023/12/28 02:27:23;;;;;;;;;;;;;;;;;;5026527;28;19917;-72
2023/12/28 02:29:48;;;;;;;;;;;;;;;;;;5010553;28;19932;-72
2023/12/28 02:32:13;;;;;;;;;;;;;;;;;;5010112;28;19922;-72
2023/12/28 02:34:39;;;;;;;;;;;;;;;;;;5011425;28;20378;-72
2023/12/28 02:37:04;;;;;;;;;;;;;;;;;;5030774;28;19921;-72
2023/12/28 02:39:29;;;;;;;;;;;;;;;;;;5028509;28;19917;-72
2023/12/28 02:41:55;;;;;;;;;;;;;;;;;;5029987;28;19936;-71
2023/12/28 02:44:20;;;;;;;;;;;;;;;;;;5022344;28;20413;-72
2023/12/28 02:46:45;;;;;;;;;;;;;;;;;;5020688;28;19924;-72
2023/12/28 02:49:11;;;;;;;;;;;;;;;;;;5028518;28;19929;-72
2023/12/28 02:51:36;;;;;;;;;;;;;;;;;;5021191;28;19921;-71
2023/12/28 02:54:02;;;;;;;;;;;;;;;;;;5025825;28;19993;-73
2023/12/28 02:56:27;;;;;;;;;;;;;;;;;;5017104;28;19928;-72
2023/12/28 02:58:52;;;;;;;;;;;;;;;;;;5020185;28;20012;-72
2023/12/28 03:01:17;;;;;;;;;;;;;;;;;;5017250;28;20379;-72
2023/12/28 03:03:42;;;;;;;;;;;;;;;;;;5020495;28;20435;-72
2023/12/28 03:06:07;;;;;;;;;;;;;;;;;;5029671;28;19975;-73
2023/12/28 03:08:32;;;;;;;;;;;;;;;;;;5014295;28;19933;-72
2023/12/28 03:10:57;;;;;;;;;;;;;;;;;;5023042;28;19922;-72
2023/12/28 03:13:23;;;;;;;;;;;;;;;;;;5011999;28;20016;-72
2023/12/28 03:15:48;;;;;;;;;;;;;;;;;;5014834;28;19976;-72
2023/12/28 03:18:13;;;;;;;;;;;;;;;;;;5009309;28;19963;-73
2023/12/28 03:20:38;;;;;;;;;;;;;;;;;;5018086;28;19996;-72
2023/12/28 03:23:04;;;;;;;;;;;;;;;;;;5011395;28;19936;-72
2023/12/28 03:25:29;;;;;;;;;;;;;;;;;;5021314;28;20336;-72
2023/12/28 03:27:54;;;;;;;;;;;;;;;;;;5021783;28;19968;-72
2023/12/28 03:30:20;;;;;;;;;;;;;;;;;;5017297;28;20356;-73
2023/12/28 03:32:45;;;;;;;;;;;;;;;;;;5010171;28;19917;-72
2023/12/28 03:35:10;;;;;;;;;;;;;;;;;;5009373;28;19925;-72
2023/12/28 03:37:35;;;;;;;;;;;;;;;;;;5012151;28;19953;-72
2023/12/28 03:40:00;;;;;;;;;;;;;;;;;;5017544;28;19918;-72
2023/12/28 03:42:25;;;;;;;;;;;;;;;;;;5015413;28;20063;-73
2023/12/28 03:44:50;;;;;;;;;;;;;;;;;;5011396;28;19991;-72
2023/12/28 03:47:16;;;;;;;;;;;;;;;;;;5021257;28;20500;-72
2023/12/28 03:49:41;;;;;;;;;;;;;;;;;;5026264;28;19932;-72
2023/12/28 03:52:06;;;;;;;;;;;;;;;;;;5009377;28;19928;-73
2023/12/28 03:54:31;;;;;;;;;;;;;;;;;;5017090;28;19933;-73
2023/12/28 03:56:57;;;;;;;;;;;;;;;;;;5011288;28;19921;-72
2023/12/28 03:59:22;;;;;;;;;;;;;;;;;;5014989;28;19917;-72
2023/12/28 04:01:47;;;;;;;;;;;;;;;;;;5009482;28;19929;-72
2023/12/28 04:04:12;;;;;;;;;;;;;;;;;;5008491;28;19921;-73
2023/12/28 04:06:37;;;;;;;;;;;;;;;;;;5007968;28;19968;-72
2023/12/28 04:09:02;;;;;;;;;;;;;;;;;;5013951;28;19933;-72
2023/12/28 04:11:27;;;;;;;;;;;;;;;;;;5009724;28;19922;-72
2023/12/28 04:13:53;;;;;;;;;;;;;;;;;;5017644;28;19964;-72
2023/12/28 04:16:18;;;;;;;;;;;;;;;;;;5020410;28;20238;-73
2023/12/28 04:18:43;;;;;;;;;;;;;;;;;;5012353;28;19971;-72
2023/12/28 04:21:08;;;;;;;;;;;;;;;;;;5011761;28;19921;-72
2023/12/28 04:23:33;;;;;;;;;;;;;;;;;;5019139;28;19921;-72
2023/12/28 04:25:59;;;;;;;;;;;;;;;;;;5014814;28;19998;-72
2023/12/28 04:28:24;;;;;;;;;;;;;;;;;;5014234;28;19933;-72
2023/12/28 04:30:49;;;;;;;;;;;;;;;;;;5013572;28;20020;-72
2023/12/28 04:33:14;;;;;;;;;;;;;;;;;;5008784;28;19948;-72
2023/12/28 04:35:39;;;;;;;;;;;;;;;;;;5018813;28;19925;-72
2023/12/28 04:38:04;;;;;;;;;;;;;;;;;;5011070;28;19927;-72
2023/12/28 04:40:29;;;;;;;;;;;;;;;;;;5017240;28;19925;-72
2023/12/28 04:42:54;;;;;;;;;;;;;;;;;;5018545;28;19922;-72
2023/12/28 04:45:21;;;;;;;;;;;;;;;;;;5022565;28;19945;-72
2023/12/28 04:47:46;;;;;;;;;;;;;;;;;;5014378;28;19925;-72
2023/12/28 04:50:11;;;;;;;;;;;;;;;;;;5012441;28;19921;-72
2023/12/28 04:52:36;;;;;;;;;;;;;;;;;;5011789;28;19928;-71
2023/12/28 04:55:02;;;;;;;;;;;;;;;;;;5015276;28;20283;-73
2023/12/28 04:57:28;;;;;;;;;;;;;;;;;;5025564;28;19917;-71
2023/12/28 04:59:53;;;;;;;;;;;;;;;;;;5017769;28;20406;-72
2023/12/28 05:02:18;;;;;;;;;;;;;;;;;;5011796;28;20021;-73
2023/12/28 05:04:43;;;;;;;;;;;;;;;;;;5017233;28;20078;-73
2023/12/28 05:07:08;;;;;;;;;;;;;;;;;;5010598;28;19930;-73
2023/12/28 05:09:33;;;;;;;;;;;;;;;;;;5010757;28;19925;-73
2023/12/28 05:11:58;;;;;;;;;;;;;;;;;;5011044;28;19929;-71
2023/12/28 05:14:23;;;;;;;;;;;;;;;;;;5010198;28;19922;-73
2023/12/28 05:16:48;;;;;;;;;;;;;;;;;;5011144;28;19921;-72
2023/12/28 05:19:13;;;;;;;;;;;;;;;;;;5011164;28;19926;-72
2023/12/28 05:21:38;;;;;;;;;;;;;;;;;;5011136;28;19944;-72
2023/12/28 05:24:04;;;;;;;;;;;;;;;;;;5011206;28;20595;-72
2023/12/28 05:26:29;;;;;;;;;;;;;;;;;;5010259;28;19956;-71
2023/12/28 05:28:54;;;;;;;;;;;;;;;;;;5010516;28;19921;-72
2023/12/28 05:31:19;;;;;;;;;;;;;;;;;;5010436;28;19921;-72
2023/12/28 05:33:45;;;;;;;;;;;;;;;;;;5015027;28;20493;-73
2023/12/28 05:36:10;;;;;;;;;;;;;;;;;;5019858;28;19933;-72
2023/12/28 05:38:35;;;;;;;;;;;;;;;;;;5019724;28;20616;-71
2023/12/28 05:41:00;;;;;;;;;;;;;;;;;;5022073;28;19921;-72
2023/12/28 05:43:25;;;;;;;;;;;;;;;;;;5010306;28;19928;-72
2023/12/28 05:45:50;;;;;;;;;;;;;;;;;;5027121;28;19929;-72
2023/12/28 05:48:15;;;;;;;;;;;;;;;;;;5010907;28;19925;-72
2023/12/28 05:50:40;;;;;;;;;;;;;;;;;;5016538;28;20586;-72
2023/12/28 05:53:05;;;;;;;;;;;;;;;;;;5030137;28;19921;-72
2023/12/28 05:55:30;;;;;;;;;;;;;;;;;;5029467;28;19925;-72
2023/12/28 05:57:56;;;;;;;;;;;;;;;;;;5029827;28;19928;-72
2023/12/28 06:00:21;;;;;;;;;;;;;;;;;;5021292;28;20497;-71
2023/12/28 06:02:49;;;;;;;;;;;;;;;;;;5009325;28;19936;-72
2023/12/28 06:05:14;;;;;;;;;;;;;;;;;;5004554;28;19918;-71
2023/12/28 06:07:41;;;;;;;;;;;;;;;;;;5011540;28;19975;-71
2023/12/28 06:10:06;;;;;;;;;;;;;;;;;;5015883;28;19925;-72
2023/12/28 06:12:31;;;;;;;;;;;;;;;;;;5017277;28;19980;-72
2023/12/28 06:14:56;;;;;;;;;;;;;;;;;;5010609;28;19921;-72
2023/12/28 06:17:21;;;;;;;;;;;;;;;;;;5010842;28;20301;-71
2023/12/28 06:19:46;;;;;;;;;;;;;;;;;;5010466;28;20353;-72
2023/12/28 06:22:11;;;;;;;;;;;;;;;;;;5010241;28;20004;-72
2023/12/28 06:24:36;;;;;;;;;;;;;;;;;;5010913;28;19921;-72
2023/12/28 06:27:01;;;;;;;;;;;;;;;;;;5010694;28;19917;-72
2023/12/28 06:29:27;;;;;;;;;;;;;;;;;;5010657;28;19980;-71
2023/12/28 06:31:52;;;;;;;;;;;;;;;;;;5023015;28;19927;-72
2023/12/28 06:34:17;;;;;;;;;;;;;;;;;;5010100;28;20008;-71
2023/12/28 06:36:43;;;;;;;;;;;;;;;;;;5013662;28;19987;-72
2023/12/28 06:39:08;;;;;;;;;;;;;;;;;;5010425;28;19949;-72
2023/12/28 06:41:33;;;;;;;;;;;;;;;;;;5016727;28;19922;-72
2023/12/28 06:43:58;;;;;;;;;;;;;;;;;;5010539;28;19929;-72
2023/12/28 06:46:23;;;;;;;;;;;;;;;;;;5009658;28;19918;-72
2023/12/28 06:48:49;;;;;;;;;;;;;;;;;;5010813;28;20268;-72
2023/12/28 06:51:14;;;;;;;;;;;;;;;;;;5013103;28;19921;-72
2023/12/28 06:53:39;;;;;;;;;;;;;;;;;;5011054;28;19968;-71
2023/12/28 06:56:04;;;;;;;;;;;;;;;;;;5017568;28;20004;-72
2023/12/28 06:58:32;;;;;;;;;;;;;;;;;;5008598;28;28653;-72
2023/12/28 07:00:57;;;;;;;;;;;;;;;;;;5008209;28;19922;-72
2023/12/28 07:03:25;;;;;;;;;;;;;;;;;;5016886;28;19928;-72
2023/12/28 07:05:51;;;;;;;;;;;;;;;;;;5009706;28;19984;-72
2023/12/28 07:08:16;;;;;;;;;;;;;;;;;;5019187;28;20313;-72
2023/12/28 07:10:41;;;;;;;;;;;;;;;;;;5010190;28;19929;-72
2023/12/28 07:13:06;;;;;;;;;;;;;;;;;;5011713;28;19917;-72
2023/12/28 07:15:31;;;;;;;;;;;;;;;;;;5018545;28;19928;-72
2023/12/28 07:17:56;;;;;;;;;;;;;;;;;;5017857;28;20029;-71
2023/12/28 07:20:22;;;;;;;;;;;;;;;;;;5009774;28;20382;-72
2023/12/28 07:22:47;;;;;;;;;;;;;;;;;;5023424;28;19956;-72
2023/12/28 07:25:12;;;;;;;;;;;;;;;;;;5014627;28;19971;-72
2023/12/28 07:27:37;;;;;;;;;;;;;;;;;;5010386;28;20008;-72
2023/12/28 07:30:02;;;;;;;;;;;;;;;;;;5010084;28;20526;-73
2023/12/28 07:32:27;;;;;;;;;;;;;;;;;;5008871;28;19929;-72
2023/12/28 07:34:52;;;;;;;;;;;;;;;;;;5010617;28;19928;-72
2023/12/28 07:37:18;;;;;;;;;;;;;;;;;;5023058;28;20425;-72
2023/12/28 07:39:43;;;;;;;;;;;;;;;;;;5023456;28;19921;-72
2023/12/28 07:42:08;;;;;;;;;;;;;;;;;;5005635;28;19976;-72
2023/12/28 07:44:33;;;;;;;;;;;;;;;;;;5010047;28;20352;-72
2023/12/28 07:46:58;;;;;;;;;;;;;;;;;;5018520;28;19953;-72
2023/12/28 07:49:23;;;;;;;;;;;;;;;;;;5008249;28;19925;-72
2023/12/28 07:51:48;;;;;;;;;;;;;;;;;;5008084;28;19944;-71
2023/12/28 07:54:13;;;;;;;;;;;;;;;;;;5018495;28;19944;-72
2023/12/28 07:56:38;;;;;;;;;;;;;;;;;;5027311;28;19945;-72
2023/12/28 07:59:05;;;;;;;;;;;;;;;;;;5015130;28;19983;-72
2023/12/28 08:01:32;;;;;;;;;;;;;;;;;;5007836;28;19975;-72
2023/12/28 08:03:58;;;;;;;;;;;;;;;;;;5005313;28;19976;-72
2023/12/28 08:06:23;;;;;;;;;;;;;;;;;;5012729;28;19929;-72
2023/12/28 08:08:48;;;;;;;;;;;;;;;;;;5016333;28;19926;-72
2023/12/28 08:11:13;;;;;;;;;;;;;;;;;;5009804;28;19956;-71
2023/12/28 08:13:38;;;;;;;;;;;;;;;;;;5011044;28;19976;-72
2023/12/28 08:16:03;;;;;;;;;;;;;;;;;;5022692;28;19930;-72
2023/12/28 08:18:28;;;;;;;;;;;;;;;;;;5023441;28;19927;-72
2023/12/28 08:20:54;;;;;;;;;;;;;;;;;;5021669;28;20006;-72
2023/12/28 08:23:19;;;;;;;;;;;;;;;;;;5032390;28;20476;-72
2023/12/28 08:25:45;;;;;;;;;;;;;;;;;;5026749;28;19933;-72
2023/12/28 08:28:10;;;;;;;;;;;;;;;;;;5016719;28;20020;-73
2023/12/28 08:30:35;;;;;;;;;;;;;;;;;;5013184;28;19921;-72
2023/12/28 08:33:00;;;;;;;;;;;;;;;;;;5019173;28;20270;-73
2023/12/28 08:35:25;;;;;;;;;;;;;;;;;;5012672;28;20411;-72
2023/12/28 08:37:50;;;;;;;;;;;;;;;;;;5021448;28;19925;-73
2023/12/28 08:40:15;;;;;;;;;;;;;;;;;;5017744;28;19932;-73
2023/12/28 08:42:41;;;;;;;;;;;;;;;;;;5012251;28;19921;-72
2023/12/28 08:45:06;;;;;;;;;;;;;;;;;;5022285;28;19928;-72
2023/12/28 08:47:31;;;;;;;;;;;;;;;;;;5014478;28;19964;-73
2023/12/28 08:49:56;;;;;;;;;;;;;;;;;;5012581;28;19933;-72
2023/12/28 08:52:21;;;;;;;;;;;;;;;;;;5013126;28;19983;-73
2023/12/28 08:54:46;;;;;;;;;;;;;;;;;;5020109;28;19974;-73
2023/12/28 08:57:11;;;;;;;;;;;;;;;;;;5021762;28;20454;-72
2023/12/28 08:59:36;;;;;;;;;;;;;;;;;;5014277;28;19944;-73
2023/12/28 09:02:01;;;;;;;;;;;;;;;;;;5011901;28;19932;-73
2023/12/28 09:04:26;;;;;;;;;;;;;;;;;;5017623;28;19928;-73
2023/12/28 09:06:52;;;;;;;;;;;;;;;;;;5020199;28;19928;-73
2023/12/28 09:09:17;;;;;;;;;;;;;;;;;;5025135;28;19925;-73
2023/12/28 09:11:42;;;;;;;;;;;;;;;;;;5012600;28;20033;-73
2023/12/28 09:14:08;;;;;;;;;;;;;;;;;;5013136;28;19921;-72
2023/12/28 09:16:33;;;;;;;;;;;;;;;;;;5016281;28;20004;-72
2023/12/28 09:18:58;;;;;;;;;;;;;;;;;;5016710;28;19933;-72
2023/12/28 09:21:23;;;;;;;;;;;;;;;;;;5018925;28;20027;-72
2023/12/28 09:23:48;;;;;;;;;;;;;;;;;;5012349;28;19929;-72
2023/12/28 09:26:13;;;;;;;;;;;;;;;;;;5015407;28;19922;-73
2023/12/28 09:28:40;;;;;;;;;;;;;;;;;;5017202;28;19948;-72
2023/12/28 09:31:06;;;;;;;;;;;;;;;;;;5019618;28;19921;-73
2023/12/28 09:33:31;;;;;;;;;;;;;;;;;;5014500;28;20424;-73
2023/12/28 09:35:57;;;;;;;;;;;;;;;;;;5014448;28;20321;-73
2023/12/28 09:38:22;;;;;;;;;;;;;;;;;;5016714;28;19923;-73
2023/12/28 09:40:47;;;;;;;;;;;;;;;;;;5013460;28;19928;-73
2023/12/28 09:43:12;;;;;;;;;;;;;;;;;;5010811;28;19922;-72
2023/12/28 09:45:38;;;;;;;;;;;;;;;;;;5011772;28;19921;-73
2023/12/28 09:48:04;;;;;;;;;;;;;;;;;;5012113;28;20298;-73
2023/12/28 09:50:29;;;;;;;;;;;;;;;;;;5009834;28;19921;-72
2023/12/28 09:52:54;;;;;;;;;;;;;;;;;;5018864;28;20566;-72
2023/12/28 09:55:19;;;;;;;;;;;;;;;;;;5012396;28;20357;-72
2023/12/28 09:57:45;;;;;;;;;;;;;;;;;;5012053;28;19928;-72
2023/12/28 10:00:11;;;;;;;;;;;;;;;;;;5008990;28;19918;-72
2023/12/28 10:02:36;;;;;;;;;;;;;;;;;;5015894;28;20285;-72
2023/12/28 10:05:02;;;;;;;;;;;;;;;;;;5014205;28;20397;-72
2023/12/28 10:07:27;;;;;;;;;;;;;;;;;;5014584;28;19929;-72
2023/12/28 10:09:52;;;;;;;;;;;;;;;;;;5011176;28;19928;-72
2023/12/28 10:12:17;;;;;;;;;;;;;;;;;;5011904;28;19922;-72
2023/12/28 10:14:42;;;;;;;;;;;;;;;;;;5010132;28;19921;-72
2023/12/28 10:17:09;;;;;;;;;;;;;;;;;;5010832;28;19918;-72
2023/12/28 10:19:34;;;;;;;;;;;;;;;;;;5011754;28;19925;-72
2023/12/28 10:22:00;;;;;;;;;;;;;;;;;;5011257;28;19921;-72
2023/12/28 10:24:25;;;;;;;;;;;;;;;;;;5011137;28;20024;-72
2023/12/28 10:26:50;;;;;;;;;;;;;;;;;;5014349;28;20286;-72
2023/12/28 10:29:15;;;;;;;;;;;;;;;;;;5009174;28;19925;-72
2023/12/28 10:31:40;;;;;;;;;;;;;;;;;;5018846;28;19922;-72
2023/12/28 10:34:05;;;;;;;;;;;;;;;;;;5015244;28;19917;-72
2023/12/28 10:36:32;;;;;;;;;;;;;;;;;;5011245;28;20402;-72
2023/12/28 10:38:57;;;;;;;;;;;;;;;;;;5009606;28;19928;-72
2023/12/28 10:41:22;;;;;;;;;;;;;;;;;;5015675;28;20012;-72
2023/12/28 10:43:47;;;;;;;;;;;;;;;;;;5019001;28;19940;-73
2023/12/28 10:46:12;;;;;;;;;;;;;;;;;;5011286;28;19928;-72
2023/12/28 10:48:37;;;;;;;;;;;;;;;;;;5019328;28;19929;-72
2023/12/28 10:51:02;;;;;;;;;;;;;;;;;;5021008;28;19920;-72
2023/12/28 10:53:27;;;;;;;;;;;;;;;;;;5023447;28;19928;-72
2023/12/28 10:55:53;;;;;;;;;;;;;;;;;;5011100;28;20382;-72
2023/12/28 10:58:20;;;;;;;;;;;;;;;;;;5011900;28;19997;-72
2023/12/28 11:00:46;;;;;;;;;;;;;;;;;;5016708;28;19921;-73
2023/12/28 11:03:11;;;;;;;;;;;;;;;;;;5017023;28;19928;-72
2023/12/28 11:05:36;;;;;;;;;;;;;;;;;;5015865;28;19921;-72
2023/12/28 11:08:01;;;;;;;;;;;;;;;;;;5009737;28;19918;-72
2023/12/28 11:10:26;;;;;;;;;;;;;;;;;;5026424;28;19991;-72
2023/12/28 11:12:51;;;;;;;;;;;;;;;;;;5021876;28;19921;-72
2023/12/28 11:15:16;;;;;;;;;;;;;;;;;;5018379;28;20282;-73
2023/12/28 11:17:41;;;;;;;;;;;;;;;;;;5010379;28;20020;-72
2023/12/28 11:20:07;;;;;;;;;;;;;;;;;;5010030;28;19921;-73
2023/12/28 11:22:32;;;;;;;;;;;;;;;;;;5012227;28;19960;-72
2023/12/28 11:24:57;;;;;;;;;;;;;;;;;;5011502;28;19983;-72
2023/12/28 11:27:23;;;;;;;;;;;;;;;;;;5020921;28;20005;-72
2023/12/28 11:29:48;;;;;;;;;;;;;;;;;;5018714;28;20006;-72
2023/12/28 11:32:13;;;;;;;;;;;;;;;;;;5017893;28;19921;-73
2023/12/28 11:34:38;;;;;;;;;;;;;;;;;;5019143;28;20395;-73
2023/12/28 11:37:03;;;;;;;;;;;;;;;;;;5019887;28;19922;-73
2023/12/28 11:39:28;;;;;;;;;;;;;;;;;;5012623;28;20548;-74
2023/12/28 11:41:53;;;;;;;;;;;;;;;;;;5015674;28;19944;-74
2023/12/28 11:44:18;;;;;;;;;;;;;;;;;;5013531;28;19917;-73
2023/12/28 11:46:44;;;;;;;;;;;;;;;;;;5013441;28;19921;-73
2023/12/28 11:49:09;;;;;;;;;;;;;;;;;;5015372;28;20468;-73
2023/12/28 11:51:34;;;;;;;;;;;;;;;;;;5011048;28;19999;-73
2023/12/28 11:53:59;;;;;;;;;;;;;;;;;;5014671;28;19963;-73
2023/12/28 11:56:25;;;;;;;;;;;;;;;;;;5027194;28;19929;-74
2023/12/28 11:58:50;;;;;;;;;;;;;;;;;;5013233;28;19918;-73
2023/12/28 12:01:15;;;;;;;;;;;;;;;;;;5011983;28;19925;-73
2023/12/28 12:03:40;;;;;;;;;;;;;;;;;;5013254;28;19928;-73
2023/12/28 12:06:06;;;;;;;;;;;;;;;;;;5013271;28;20005;-73
2023/12/28 12:08:31;;;;;;;;;;;;;;;;;;5014110;28;19925;-74
2023/12/28 12:10:57;;;;;;;;;;;;;;;;;;5013253;28;20024;-73
2023/12/28 12:13:22;;;;;;;;;;;;;;;;;;5011599;28;19921;-73
2023/12/28 12:15:47;;;;;;;;;;;;;;;;;;5011504;28;20341;-73
2023/12/28 12:18:12;;;;;;;;;;;;;;;;;;5014106;28;19921;-74
2023/12/28 12:20:38;;;;;;;;;;;;;;;;;;5013009;28;19921;-73
2023/12/28 12:23:04;;;;;;;;;;;;;;;;;;5012339;28;20405;-74
2023/12/28 12:25:29;;;;;;;;;;;;;;;;;;5015269;28;19972;-70
2023/12/28 12:27:54;;;;;;;;;;;;;;;;;;5011781;28;20004;-69
2023/12/28 12:30:19;;;;;;;;;;;;;;;;;;5010980;28;20302;-69
2023/12/28 12:32:44;;;;;;;;;;;;;;;;;;5012716;28;19984;-69
2023/12/28 12:35:09;;;;;;;;;;;;;;;;;;5012231;28;19964;-69
2023/12/28 12:37:34;;;;;;;;;;;;;;;;;;5021265;28;19921;-68
2023/12/28 12:39:59;;;;;;;;;;;;;;;;;;5021376;28;20286;-68
2023/12/28 12:42:25;;;;;;;;;;;;;;;;;;5028967;28;19917;-68
2023/12/28 12:44:50;;;;;;;;;;;;;;;;;;5012917;28;19921;-68
2023/12/28 12:47:15;;;;;;;;;;;;;;;;;;5013330;28;19972;-68
2023/12/28 12:49:43;;;;;;;;;;;;;;;;;;5029160;28;19926;-68
2023/12/28 12:52:08;;;;;;;;;;;;;;;;;;5027506;28;19954;-69
2023/12/28 12:54:33;;;;;;;;;;;;;;;;;;5013861;28;19918;-68
2023/12/28 12:56:59;;;;;;;;;;;;;;;;;;5018743;28;20235;-68
2023/12/28 12:59:25;;;;;;;;;;;;;;;;;;5015461;28;20381;-68
2023/12/28 13:01:52;;;;;;;;;;;;;;;;;;5020622;28;20383;-68
2023/12/28 13:04:17;;;;;;;;;;;;;;;;;;5032155;28;19917;-68
2023/12/28 13:06:43;;;;;;;;;;;;;;;;;;5031622;28;19924;-68
2023/12/28 13:09:10;;;;;;;;;;;;;;;;;;5032188;28;20350;-68
2023/12/28 13:11:35;;;;;;;;;;;;;;;;;;5013833;28;19917;-68
2023/12/28 13:14:00;;;;;;;;;;;;;;;;;;5016241;28;20005;-69
2023/12/28 13:16:25;;;;;;;;;;;;;;;;;;5012084;28;20132;-69
2023/12/28 13:18:51;;;;;;;;;;;;;;;;;;5017342;28;20258;-69
2023/12/28 13:21:16;;;;;;;;;;;;;;;;;;5025485;28;19944;-68
2023/12/28 13:23:41;;;;;;;;;;;;;;;;;;5012657;28;20008;-68
2023/12/28 13:26:06;;;;;;;;;;;;;;;;;;5018009;28;19971;-70
2023/12/28 13:28:31;;;;;;;;;;;;;;;;;;5021817;28;20341;-68
2023/12/28 13:30:57;;;;;;;;;;;;;;;;;;5017797;28;19921;-68
2023/12/28 13:33:22;;;;;;;;;;;;;;;;;;5023570;28;20000;-68
2023/12/28 13:35:47;;;;;;;;;;;;;;;;;;5024349;28;20348;-68
2023/12/28 13:38:12;;;;;;;;;;;;;;;;;;5030284;28;19972;-69
2023/12/28 13:40:37;;;;;;;;;;;;;;;;;;5021026;28;19922;-68
2023/12/28 13:43:02;;;;;;;;;;;;;;;;;;5012517;28;19917;-68
2023/12/28 13:45:27;;;;;;;;;;;;;;;;;;5013517;28;19925;-68
2023/12/28 13:47:52;;;;;;;;;;;;;;;;;;5012593;28;20547;-68
2023/12/28 13:50:19;;;;;;;;;;;;;;;;;;5026315;28;19921;-69
2023/12/28 13:52:44;;;;;;;;;;;;;;;;;;5030812;28;19928;-68
2023/12/28 13:55:11;;;;;;;;;;;;;;;;;;5025380;28;19926;-68
2023/12/28 13:57:36;;;;;;;;;;;;;;;;;;5012550;28;19943;-68
2023/12/28 14:00:01;;;;;;;;;;;;;;;;;;5013390;28;20060;-68
2023/12/28 14:02:26;;;;;;;;;;;;;;;;;;5010050;28;19918;-68
2023/12/28 14:04:53;;;;;;;;;;;;;;;;;;5017223;28;19917;-68
2023/12/28 14:07:18;;;;;;;;;;;;;;;;;;5016427;28;19956;-68
2023/12/28 14:09:44;;;;;;;;;;;;;;;;;;5023326;28;19965;-68
2023/12/28 14:12:09;;;;;;;;;;;;;;;;;;5030461;28;20370;-68
2023/12/28 14:14:34;;;;;;;;;;;;;;;;;;5016523;28;19972;-68
2023/12/28 14:16:59;;;;;;;;;;;;;;;;;;5017228;28;19929;-68
2023/12/28 14:19:24;;;;;;;;;;;;;;;;;;5014555;28;19917;-68
2023/12/28 14:21:49;;;;;;;;;;;;;;;;;;5025123;28;19917;-68
2023/12/28 14:24:14;;;;;;;;;;;;;;;;;;5012514;28;20012;-68
2023/12/28 14:26:40;;;;;;;;;;;;;;;;;;5012635;28;19921;-68
2023/12/28 14:29:06;;;;;;;;;;;;;;;;;;5017922;28;19921;-68
2023/12/28 14:31:31;;;;;;;;;;;;;;;;;;5031998;28;19917;-68
2023/12/28 14:33:56;;;;;;;;;;;;;;;;;;5019714;28;19924;-68
2023/12/28 14:36:21;;;;;;;;;;;;;;;;;;5011844;28;19917;-68
2023/12/28 14:38:46;;;;;;;;;;;;;;;;;;5011146;28;19957;-67
2023/12/28 14:41:12;;;;;;;;;;;;;;;;;;5010963;28;19921;-68
2023/12/28 14:43:37;;;;;;;;;;;;;;;;;;5011513;28;19952;-68
2023/12/28 14:46:04;;;;;;;;;;;;;;;;;;5010551;28;19925;-68
2023/12/28 14:48:29;;;;;;;;;;;;;;;;;;5019812;28;19921;-68
2023/12/28 14:50:54;;;;;;;;;;;;;;;;;;5026343;28;19948;-68
2023/12/28 14:53:19;;;;;;;;;;;;;;;;;;5010615;28;19932;-68
2023/12/28 14:55:45;;;;;;;;;;;;;;;;;;5010828;28;19921;-68
2023/12/28 14:58:10;;;;;;;;;;;;;;;;;;5010108;28;20505;-68
2023/12/28 15:00:35;;;;;;;;;;;;;;;;;;5011520;28;19917;-68
2023/12/28 15:03:00;;;;;;;;;;;;;;;;;;5011866;28;19917;-68
2023/12/28 15:05:25;;;;;;;;;;;;;;;;;;5010813;28;19925;-68
2023/12/28 15:07:50;;;;;;;;;;;;;;;;;;5018961;28;19918;-68
2023/12/28 15:10:15;;;;;;;;;;;;;;;;;;5017936;28;19922;-68
2023/12/28 15:12:40;;;;;;;;;;;;;;;;;;5018714;28;20582;-68
2023/12/28 15:15:06;;;;;;;;;;;;;;;;;;5010440;28;19921;-68
2023/12/28 15:17:31;;;;;;;;;;;;;;;;;;5018563;28;20067;-68
2023/12/28 15:19:56;;;;;;;;;;;;;;;;;;5014681;28;19923;-68
2023/12/28 15:22:21;;;;;;;;;;;;;;;;;;5014133;28;19935;-68
2023/12/28 15:24:46;;;;;;;;;;;;;;;;;;5026577;28;19921;-68
2023/12/28 15:27:12;;;;;;;;;;;;;;;;;;5018234;28;20519;-67
2023/12/28 15:29:37;;;;;;;;;;;;;;;;;;5019505;28;19925;-68
2023/12/28 15:32:02;;;;;;;;;;;;;;;;;;5025601;28;19923;-67
2023/12/28 15:34:27;;;;;;;;;;;;;;;;;;5016329;28;19925;-68
2023/12/28 15:36:52;;;;;;;;;;;;;;;;;;5026986;28;19945;-67
2023/12/28 15:39:17;;;;;;;;;;;;;;;;;;5023960;28;19996;-67
2023/12/28 15:41:43;;;;;;;;;;;;;;;;;;5020488;28;19924;-68
2023/12/28 15:44:08;;;;;;;;;;;;;;;;;;5018098;28;19928;-69
2023/12/28 15:46:33;;;;;;;;;;;;;;;;;;5027306;28;19917;-68
2023/12/28 15:48:58;;;;;;;;;;;;;;;;;;5019456;28;19955;-68
2023/12/28 15:51:23;;;;;;;;;;;;;;;;;;5018359;28;20004;-67
2023/12/28 15:53:48;;;;;;;;;;;;;;;;;;5020104;28;19918;-68
2023/12/28 15:56:13;;;;;;;;;;;;;;;;;;5010236;28;19944;-67
2023/12/28 15:58:40;;;;;;;;;;;;;;;;;;5011406;28;19918;-68
2023/12/28 16:01:05;;;;;;;;;;;;;;;;;;5012891;28;19932;-68
2023/12/28 16:03:30;;;;;;;;;;;;;;;;;;5034136;28;19917;-68
2023/12/28 16:05:55;;;;;;;;;;;;;;;;;;5010277;28;19924;-67
2023/12/28 16:08:20;;;;;;;;;;;;;;;;;;5024735;28;20313;-68
2023/12/28 16:10:46;;;;;;;;;;;;;;;;;;5029496;28;19961;-67
2023/12/28 16:13:11;;;;;;;;;;;;;;;;;;5023701;28;19917;-68
2023/12/28 16:15:37;;;;;;;;;;;;;;;;;;5009782;28;19944;-68
2023/12/28 16:18:03;;;;;;;;;;;;;;;;;;5009554;28;19979;-69
2023/12/28 16:20:28;;;;;;;;;;;;;;;;;;5016378;28;19921;-67
2023/12/28 16:22:54;;;;;;;;;;;;;;;;;;5009666;28;19924;-67
2023/12/28 16:25:19;;;;;;;;;;;;;;;;;;5009378;28;20215;-68
2023/12/28 16:27:44;;;;;;;;;;;;;;;;;;5027113;28;19924;-67
2023/12/28 16:30:09;;;;;;;;;;;;;;;;;;5020206;28;19936;-67
2023/12/28 16:32:34;;;;;;;;;;;;;;;;;;5012899;28;20306;-68